Terminal Aerodrome Forecast
Issued by NWS Pittsburgh, PA

Home | Current Version | Previous Version | Text Only | Print | Product List | Glossary On
Versions: 1 2 3 4 5 6 7 8 9 10 11 12 13 14 15 16 17 18 19 20 21 22 23 24 25 26
000
FTUS41 KPBZ 272330
TAFPIT
TAF
KPIT 272330Z 2800/2906 32011KT P6SM OVC035
      TEMPO 2800/2802 OVC025
     FM281500 32009KT P6SM BKN040
     FM290000 32004KT P6SM FEW035=

USA.gov is the U.S. government's official web portal to all federal, state and local government web resources and services.